createdAt,value
2022-11-13T00:01:18.718Z,4.48
2022-11-13T00:03:46.172Z,4.42
2022-11-13T00:06:14.407Z,4.30
2022-11-13T00:08:41.877Z,4.25
2022-11-13T00:11:13.242Z,4.30
2022-11-13T00:13:39.719Z,4.39
2022-11-13T00:16:12.166Z,4.34
2022-11-13T00:18:39.305Z,4.31
2022-11-13T00:21:08.966Z,4.29
2022-11-13T00:23:36.878Z,4.27
2022-11-13T00:26:18.995Z,4.35
2022-11-13T00:28:45.987Z,4.48
2022-11-13T00:31:15.533Z,4.41
2022-11-13T00:36:29.191Z,4.38
2022-11-13T00:38:56.359Z,4.49
2022-11-13T00:41:24.515Z,4.57
2022-11-13T00:43:51.356Z,4.59
2022-11-13T00:46:17.829Z,4.48
2022-11-13T00:48:44.529Z,4.50
2022-11-13T00:51:11.785Z,4.52
2022-11-13T00:53:38.247Z,4.52
2022-11-13T00:56:05.282Z,4.48
2022-11-13T00:58:32.080Z,4.41
2022-11-13T01:01:10.616Z,4.31
2022-11-13T01:03:37.926Z,4.31
2022-11-13T01:06:13.805Z,4.22
2022-11-13T01:08:41.155Z,4.22
2022-11-13T01:11:14.313Z,4.18
2022-11-13T01:13:43.239Z,4.10
2022-11-13T01:16:13.357Z,4.05
2022-11-13T01:18:43.841Z,4.01
2022-11-13T01:21:14.861Z,3.88
2022-11-13T01:23:41.768Z,3.74
2022-11-13T01:26:25.004Z,3.60
2022-11-13T01:28:51.766Z,3.61
2022-11-13T01:31:22.492Z,3.58
2022-11-13T01:33:49.817Z,3.63
2022-11-13T01:36:20.884Z,3.67
2022-11-13T01:38:48.292Z,3.63
2022-11-13T01:41:23.940Z,3.66
2022-11-13T01:43:53.472Z,3.73
2022-11-13T01:46:38.577Z,3.76
2022-11-13T01:49:31.648Z,3.64
2022-11-13T01:52:03.701Z,3.45
2022-11-13T01:54:37.046Z,3.46
2022-11-13T01:57:05.310Z,3.53
2022-11-13T01:59:47.042Z,3.50
2022-11-13T02:02:13.605Z,3.40
2022-11-13T02:04:40.570Z,3.29
2022-11-13T02:07:11.358Z,3.20
2022-11-13T02:09:49.312Z,3.07
2022-11-13T02:12:25.290Z,3.00
2022-11-13T02:14:54.729Z,3.03
2022-11-13T02:17:33.760Z,3.12
2022-11-13T02:20:04.354Z,3.06
2022-11-13T02:23:11.845Z,2.98
2022-11-13T02:25:40.421Z,2.98
2022-11-13T02:28:06.870Z,3.06
2022-11-13T02:30:35.840Z,3.12
2022-11-13T02:33:02.542Z,3.11
2022-11-13T02:35:35.078Z,3.12
2022-11-13T02:38:05.509Z,3.04
2022-11-13T02:40:33.930Z,3.01
2022-11-13T02:43:00.508Z,2.96
2022-11-13T02:45:27.005Z,2.77
2022-11-13T02:47:53.486Z,2.76
2022-11-13T02:50:20.021Z,2.85
2022-11-13T02:52:46.536Z,2.83
2022-11-13T02:55:13.126Z,2.92
2022-11-13T02:57:39.644Z,2.99
2022-11-13T03:00:12.433Z,3.08
2022-11-13T03:02:40.524Z,3.17
2022-11-13T03:05:12.827Z,3.23
2022-11-13T03:07:39.900Z,3.05
2022-11-13T03:10:07.367Z,3.10
2022-11-13T03:12:34.086Z,3.19
2022-11-13T03:15:01.043Z,3.16
2022-11-13T03:17:27.722Z,3.08
2022-11-13T03:19:54.173Z,2.95
2022-11-13T03:22:20.636Z,2.84
2022-11-13T03:24:47.347Z,2.81
2022-11-13T03:27:13.913Z,2.94
2022-11-13T03:29:40.430Z,3.05
2022-11-13T03:32:06.868Z,3.11
2022-11-13T03:34:33.324Z,3.05
2022-11-13T03:36:59.874Z,2.80
2022-11-13T03:39:26.325Z,2.77
2022-11-13T03:41:52.794Z,2.76
2022-11-13T03:44:19.241Z,2.65
2022-11-13T03:46:45.686Z,2.66
2022-11-13T03:49:12.157Z,2.67
2022-11-13T03:51:38.625Z,2.62
2022-11-13T03:54:05.114Z,2.56
2022-11-13T03:56:31.771Z,2.52
2022-11-13T03:58:58.392Z,2.48
2022-11-13T04:01:24.856Z,2.44
2022-11-13T04:03:51.354Z,2.36
2022-11-13T04:06:17.849Z,2.34
2022-11-13T04:08:44.348Z,2.33
2022-11-13T04:11:13.057Z,2.30
2022-11-13T04:13:39.649Z,2.30
2022-11-13T04:16:06.359Z,2.22
2022-11-13T04:18:33.132Z,2.23
2022-11-13T04:21:05.026Z,2.22
2022-11-13T04:23:32.227Z,2.13
2022-11-13T04:25:59.026Z,2.02
2022-11-13T04:28:25.546Z,2.03
2022-11-13T04:30:55.212Z,2.03
2022-11-13T04:33:21.706Z,2.02
2022-11-13T04:35:48.475Z,2.04
2022-11-13T04:38:15.594Z,1.97
2022-11-13T04:40:42.669Z,1.99
2022-11-13T04:43:09.193Z,1.98
2022-11-13T04:45:36.873Z,2.00
2022-11-13T04:48:04.186Z,2.04
2022-11-13T04:50:31.168Z,2.09
2022-11-13T04:52:57.597Z,2.12
2022-11-13T04:55:24.233Z,2.21
2022-11-13T04:57:55.476Z,2.18
2022-11-13T05:00:22.600Z,2.18
2022-11-13T05:02:49.141Z,2.12
2022-11-13T05:05:15.676Z,2.14
2022-11-13T05:07:42.489Z,2.07
2022-11-13T05:10:09.819Z,2.06
2022-11-13T05:12:36.288Z,2.12
2022-11-13T05:15:03.137Z,2.20
2022-11-13T05:17:29.582Z,2.20
2022-11-13T05:19:56.045Z,2.23
2022-11-13T05:22:22.476Z,2.16
2022-11-13T05:24:48.921Z,2.30
2022-11-13T05:27:17.502Z,2.38
2022-11-13T05:29:44.583Z,2.47
2022-11-13T05:32:11.038Z,2.41
2022-11-13T05:34:37.517Z,2.20
2022-11-13T05:37:04.257Z,2.11
2022-11-13T05:39:30.754Z,2.13
2022-11-13T05:41:57.335Z,2.11
2022-11-13T05:44:23.822Z,2.13
2022-11-13T05:46:50.290Z,2.17
2022-11-13T05:49:16.761Z,2.12
2022-11-13T05:51:43.204Z,2.16
2022-11-13T05:54:09.627Z,2.25
2022-11-13T05:56:37.271Z,2.34
2022-11-13T05:59:05.328Z,2.32
2022-11-13T06:01:39.118Z,2.20
2022-11-13T06:04:07.817Z,2.14
2022-11-13T06:06:34.860Z,1.96
2022-11-13T06:09:05.387Z,1.87
2022-11-13T06:11:32.865Z,1.90
2022-11-13T06:14:00.281Z,1.79
2022-11-13T06:16:38.649Z,1.79
2022-11-13T06:19:08.603Z,1.90
2022-11-13T06:21:39.432Z,1.99
2022-11-13T06:24:08.718Z,2.06
2022-11-13T06:26:36.795Z,2.07
2022-11-13T06:29:06.538Z,1.90
2022-11-13T06:31:36.977Z,1.79
2022-11-13T06:34:05.436Z,1.78
2022-11-13T06:36:37.023Z,1.70
2022-11-13T06:39:09.318Z,1.53
2022-11-13T06:41:38.190Z,1.54
2022-11-13T06:44:04.812Z,1.55
2022-11-13T06:46:31.979Z,1.65
2022-11-13T06:48:58.877Z,1.75
2022-11-13T06:51:29.503Z,1.73
2022-11-13T06:53:56.937Z,1.79
2022-11-13T06:56:24.044Z,1.84
2022-11-13T06:58:50.479Z,1.95
2022-11-13T07:01:21.220Z,2.06
2022-11-13T07:03:48.346Z,2.10
2022-11-13T07:06:21.804Z,1.90
2022-11-13T07:08:48.878Z,1.81
2022-11-13T07:11:18.918Z,1.73
2022-11-13T07:13:46.280Z,1.77
2022-11-13T07:16:17.740Z,1.76
2022-11-13T07:18:51.235Z,1.80
2022-11-13T07:21:18.245Z,1.93
2022-11-13T07:23:48.225Z,1.99
2022-11-13T07:26:14.719Z,2.05
2022-11-13T07:28:41.387Z,2.12
2022-11-13T07:31:11.100Z,2.07
2022-11-13T07:33:37.617Z,2.07
2022-11-13T07:36:04.585Z,2.14
2022-11-13T07:38:32.020Z,2.07
2022-11-13T07:40:59.365Z,2.09
2022-11-13T07:43:26.468Z,2.09
2022-11-13T07:45:54.802Z,2.21
2022-11-13T07:48:23.226Z,2.34
2022-11-13T07:50:50.992Z,2.39
2022-11-13T07:53:19.770Z,2.29
2022-11-13T07:55:47.470Z,2.32
2022-11-13T07:58:15.315Z,2.29
2022-11-13T08:00:41.831Z,2.27
2022-11-13T08:03:12.956Z,2.11
2022-11-13T08:05:39.857Z,2.09
2022-11-13T08:08:07.348Z,2.04
2022-11-13T08:10:33.954Z,2.01
2022-11-13T08:13:07.662Z,1.99
2022-11-13T08:15:34.896Z,2.04
2022-11-13T08:18:04.239Z,2.09
2022-11-13T08:20:32.096Z,2.29
2022-11-13T08:23:01.390Z,2.37
2022-11-13T08:25:29.871Z,2.51
2022-11-13T08:27:57.311Z,2.60
2022-11-13T08:30:26.683Z,2.70
2022-11-13T08:32:53.552Z,2.78
2022-11-13T08:35:25.138Z,2.72
2022-11-13T08:38:01.218Z,2.62
2022-11-13T08:40:27.704Z,2.63
2022-11-13T08:43:02.449Z,2.55
2022-11-13T08:45:30.687Z,2.61
2022-11-13T08:48:04.899Z,2.71
2022-11-13T08:50:33.770Z,2.76
2022-11-13T08:53:01.527Z,2.84
2022-11-13T08:55:28.478Z,2.86
2022-11-13T08:58:01.765Z,3.01
2022-11-13T09:00:30.428Z,3.11
2022-11-13T09:02:59.559Z,3.22
2022-11-13T09:05:26.754Z,3.35
2022-11-13T09:07:59.397Z,3.42
2022-11-13T09:10:27.540Z,3.50
2022-11-13T09:13:03.794Z,3.51
2022-11-13T09:15:32.506Z,3.68
2022-11-13T09:18:01.423Z,3.75
2022-11-13T09:20:31.045Z,3.87
2022-11-13T09:23:04.204Z,3.95
2022-11-13T09:25:37.571Z,4.02
2022-11-13T09:28:06.700Z,4.11
2022-11-13T09:30:33.780Z,4.17
2022-11-13T09:33:01.273Z,4.22
2022-11-13T09:35:36.115Z,4.27
2022-11-13T09:38:10.399Z,4.38
2022-11-13T09:40:58.823Z,4.46
2022-11-13T09:44:00.121Z,4.50
2022-11-13T09:47:08.713Z,4.62
2022-11-13T09:49:45.660Z,4.79
2022-11-13T09:52:34.534Z,4.96
2022-11-13T09:55:01.294Z,5.10
2022-11-13T09:57:51.242Z,5.21
2022-11-13T10:00:22.455Z,5.30
2022-11-13T10:03:39.438Z,5.45
2022-11-13T10:06:20.980Z,5.51
2022-11-13T10:09:24.799Z,5.55
2022-11-13T10:12:02.942Z,5.73
2022-11-13T10:14:36.650Z,5.88
2022-11-13T10:17:33.335Z,5.95
2022-11-13T10:20:05.363Z,6.08
2022-11-13T10:22:40.479Z,6.15
2022-11-13T10:25:18.201Z,6.27
2022-11-13T10:28:07.483Z,6.37
2022-11-13T10:30:42.757Z,6.60
2022-11-13T10:33:16.571Z,6.64
2022-11-13T10:36:06.470Z,6.78
2022-11-13T10:38:53.713Z,7.12
2022-11-13T10:41:21.775Z,7.08
2022-11-13T10:44:17.913Z,7.35
2022-11-13T10:46:44.386Z,7.58
2022-11-13T10:49:21.565Z,7.69
2022-11-13T10:52:01.032Z,7.86
2022-11-13T10:54:33.129Z,8.01
2022-11-13T10:57:28.385Z,8.29
2022-11-13T10:59:55.005Z,8.59
2022-11-13T11:02:26.227Z,8.62
2022-11-13T11:05:16.000Z,8.69
2022-11-13T11:07:42.755Z,8.73
2022-11-13T11:10:21.299Z,8.80
2022-11-13T11:13:07.054Z,8.90
2022-11-13T11:15:48.622Z,9.09
2022-11-13T11:18:40.839Z,9.07
2022-11-13T11:21:17.521Z,9.18
2022-11-13T11:24:11.358Z,8.92
2022-11-13T11:26:54.410Z,9.04
2022-11-13T11:29:51.807Z,9.15
2022-11-13T11:32:45.133Z,9.21
2022-11-13T11:35:43.357Z,9.25
2022-11-13T11:38:27.075Z,9.37
2022-11-13T11:41:05.142Z,9.49
2022-11-13T11:43:43.883Z,9.58
2022-11-13T11:46:22.329Z,9.70
2022-11-13T11:48:50.787Z,9.79
2022-11-13T11:51:30.964Z,9.86
2022-11-13T11:54:28.762Z,9.89
2022-11-13T11:57:37.376Z,9.91
2022-11-13T12:00:15.203Z,9.91
2022-11-13T12:02:56.481Z,10.18
2022-11-13T12:05:29.986Z,10.39
2022-11-13T12:08:22.106Z,10.59
2022-11-13T12:11:17.230Z,10.59
2022-11-13T12:13:58.878Z,10.81
2022-11-13T12:16:59.188Z,10.73
2022-11-13T12:19:54.829Z,10.95
2022-11-13T12:22:46.634Z,11.08
2022-11-13T12:25:27.601Z,11.30
2022-11-13T12:28:14.914Z,11.38
2022-11-13T12:31:12.270Z,11.26
2022-11-13T12:34:07.443Z,11.12
2022-11-13T12:36:35.312Z,11.01
2022-11-13T12:39:40.349Z,11.02
2022-11-13T12:43:09.187Z,11.18
2022-11-13T12:45:38.694Z,11.22
2022-11-13T12:48:19.963Z,11.28
2022-11-13T12:51:02.984Z,11.32
2022-11-13T12:53:44.903Z,11.54
2022-11-13T12:56:25.950Z,11.63
2022-11-13T12:59:29.197Z,11.65
2022-11-13T13:02:00.820Z,11.56
2022-11-13T13:05:01.424Z,11.54
2022-11-13T13:08:05.029Z,11.54
2022-11-13T13:11:15.439Z,11.55
2022-11-13T13:14:02.274Z,11.48
2022-11-13T13:16:29.802Z,11.55
2022-11-13T13:19:28.714Z,11.78
2022-11-13T13:21:55.547Z,11.86
2022-11-13T13:24:40.017Z,11.83
2022-11-13T13:27:27.253Z,11.93
2022-11-13T13:29:53.849Z,11.94
2022-11-13T13:32:50.820Z,12.04
2022-11-13T13:35:29.926Z,12.08
2022-11-13T13:38:18.403Z,11.97
2022-11-13T13:41:12.826Z,12.19
2022-11-13T13:44:02.017Z,12.24
2022-11-13T13:46:34.694Z,12.14
2022-11-13T13:49:14.479Z,12.31
2022-11-13T13:51:48.948Z,12.37
2022-11-13T13:54:23.364Z,12.18
2022-11-13T13:56:50.180Z,11.94
2022-11-13T13:59:25.168Z,11.80
2022-11-13T14:01:58.992Z,11.69
2022-11-13T14:04:29.338Z,11.80
2022-11-13T14:07:02.226Z,11.75
2022-11-13T14:09:30.744Z,11.71
2022-11-13T14:12:21.536Z,11.68
2022-11-13T14:14:49.127Z,11.74
2022-11-13T14:17:25.026Z,11.68
2022-11-13T14:20:00.547Z,11.66
2022-11-13T14:22:27.960Z,11.65
2022-11-13T14:25:00.659Z,11.59
2022-11-13T14:27:28.945Z,11.60
2022-11-13T14:29:59.929Z,11.65
2022-11-13T14:32:41.889Z,11.57
2022-11-13T14:35:21.807Z,11.51
2022-11-13T14:37:48.979Z,11.50
2022-11-13T14:40:25.486Z,11.49
2022-11-13T14:42:58.557Z,11.37
2022-11-13T14:45:31.474Z,11.32
2022-11-13T14:48:22.806Z,11.18
2022-11-13T14:50:58.196Z,11.18
2022-11-13T14:53:41.478Z,11.17
2022-11-13T14:56:11.483Z,11.15
2022-11-13T14:58:47.222Z,11.12
2022-11-13T15:01:16.555Z,11.06
2022-11-13T15:03:48.921Z,10.99
2022-11-13T15:06:20.394Z,10.85
2022-11-13T15:08:48.747Z,10.83
2022-11-13T15:11:18.537Z,10.73
2022-11-13T15:13:46.165Z,10.67
2022-11-13T15:16:24.690Z,10.54
2022-11-13T15:19:04.405Z,10.34
2022-11-13T15:21:32.042Z,10.19
2022-11-13T15:23:58.583Z,10.11
2022-11-13T15:26:25.057Z,10.01
2022-11-13T15:28:51.511Z,10.00
2022-11-13T15:31:26.229Z,9.83
2022-11-13T15:33:53.000Z,9.68
2022-11-13T15:36:19.468Z,9.55
2022-11-13T15:38:45.988Z,9.52
2022-11-13T15:41:18.306Z,9.47
2022-11-13T15:43:56.386Z,9.27
2022-11-13T15:46:24.758Z,9.32
2022-11-13T15:48:51.416Z,9.24
2022-11-13T15:51:27.950Z,9.08
2022-11-13T15:54:02.082Z,8.96
2022-11-13T15:56:30.909Z,8.91
2022-11-13T15:58:57.351Z,8.89
2022-11-13T16:01:24.085Z,8.96
2022-11-13T16:03:51.545Z,8.96
2022-11-13T16:06:22.384Z,8.81
2022-11-13T16:08:49.697Z,8.68
2022-11-13T16:11:19.233Z,8.45
2022-11-13T16:13:46.810Z,8.43
2022-11-13T16:16:26.963Z,8.41
2022-11-13T16:18:58.782Z,8.32
2022-11-13T16:21:28.026Z,8.04
2022-11-13T16:23:54.461Z,8.14
2022-11-13T16:26:24.812Z,8.11
2022-11-13T16:29:12.691Z,8.06
2022-11-13T16:31:39.921Z,7.98
2022-11-13T16:34:06.359Z,8.04
2022-11-13T16:36:32.902Z,8.01
2022-11-13T16:38:59.388Z,8.08
2022-11-13T16:41:26.094Z,8.08
2022-11-13T16:43:52.654Z,8.10
2022-11-13T16:46:35.617Z,7.94
2022-11-13T16:49:02.083Z,7.70
2022-11-13T16:51:28.625Z,7.41
2022-11-13T16:53:55.051Z,7.51
2022-11-13T16:56:30.610Z,7.38
2022-11-13T16:58:58.884Z,7.19
2022-11-13T17:01:26.186Z,7.18
2022-11-13T17:03:52.703Z,7.05
2022-11-13T17:06:27.563Z,6.96
2022-11-13T17:08:56.667Z,6.99
2022-11-13T17:11:26.113Z,7.02
2022-11-13T17:13:55.595Z,7.02
2022-11-13T17:16:24.064Z,7.09
2022-11-13T17:18:52.786Z,7.05
2022-11-13T17:21:24.769Z,7.03
2022-11-13T17:23:59.558Z,6.93
2022-11-13T17:26:27.698Z,6.97
2022-11-13T17:28:54.658Z,6.98
2022-11-13T17:31:21.672Z,7.01
2022-11-13T17:33:48.329Z,6.99
2022-11-13T17:36:15.048Z,6.90
2022-11-13T17:38:41.587Z,6.83
2022-11-13T17:41:12.171Z,6.83
2022-11-13T17:43:41.073Z,6.69
2022-11-13T17:46:12.625Z,6.62
2022-11-13T17:48:39.335Z,6.62
2022-11-13T17:51:09.724Z,6.54
2022-11-13T17:53:36.173Z,6.35
2022-11-13T17:56:08.015Z,6.12
2022-11-13T17:58:39.885Z,5.90
2022-11-13T18:01:12.790Z,5.88
2022-11-13T18:03:40.029Z,5.96
2022-11-13T18:06:19.505Z,6.02
2022-11-13T18:08:47.090Z,6.08
2022-11-13T18:11:23.743Z,5.97
2022-11-13T18:13:50.865Z,5.58
2022-11-13T18:16:26.660Z,5.75
2022-11-13T18:18:56.330Z,5.71
2022-11-13T18:21:28.823Z,5.67
2022-11-13T18:24:08.053Z,5.59
2022-11-13T18:26:34.834Z,5.59
2022-11-13T18:29:03.021Z,5.58
2022-11-13T18:31:30.493Z,5.46
2022-11-13T18:34:02.484Z,5.49
2022-11-13T18:36:29.479Z,5.37
2022-11-13T18:38:55.973Z,5.37
2022-11-13T18:41:23.212Z,5.39
2022-11-13T18:43:51.897Z,5.32
2022-11-13T18:46:21.799Z,5.29
2022-11-13T18:48:49.629Z,5.19
2022-11-13T18:51:24.123Z,5.19
2022-11-13T18:53:52.843Z,5.02
2022-11-13T18:56:28.865Z,4.82
2022-11-13T18:58:57.357Z,4.63
2022-11-13T19:01:33.606Z,4.63
2022-11-13T19:06:52.346Z,4.75
2022-11-13T19:09:19.657Z,4.88
2022-11-13T19:11:46.756Z,4.78
2022-11-13T19:14:17.397Z,4.68
2022-11-13T19:16:43.919Z,4.53
2022-11-13T19:19:22.459Z,4.39
2022-11-13T19:21:50.774Z,4.47
2022-11-13T19:24:17.622Z,4.28
2022-11-13T19:26:45.801Z,4.39
2022-11-13T19:29:12.516Z,4.36
2022-11-13T19:31:39.168Z,4.50
2022-11-13T19:34:07.863Z,4.56
2022-11-13T19:36:36.218Z,4.64
2022-11-13T19:39:04.137Z,4.63
2022-11-13T19:41:30.827Z,4.58
2022-11-13T19:43:59.575Z,4.63
2022-11-13T19:46:26.875Z,4.57
2022-11-13T19:48:54.253Z,4.51
2022-11-13T19:51:24.872Z,4.25
2022-11-13T19:53:56.992Z,4.01
2022-11-13T19:56:25.423Z,4.04
2022-11-13T19:58:52.803Z,3.93
2022-11-13T20:01:23.398Z,3.92
2022-11-13T20:04:00.159Z,3.92
2022-11-13T20:06:27.994Z,3.54
2022-11-13T20:08:54.769Z,3.74
2022-11-13T20:11:21.259Z,3.85
2022-11-13T20:13:47.744Z,3.83
2022-11-13T20:16:16.593Z,3.76
2022-11-13T20:18:44.464Z,3.56
2022-11-13T20:21:11.086Z,3.36
2022-11-13T20:23:38.416Z,3.45
2022-11-13T20:26:10.275Z,3.48
2022-11-13T20:28:36.738Z,3.53
2022-11-13T20:31:16.325Z,3.63
2022-11-13T20:33:43.356Z,3.51
2022-11-13T20:36:09.875Z,3.32
2022-11-13T20:38:37.375Z,3.33
2022-11-13T20:41:10.794Z,3.29
2022-11-13T20:43:37.888Z,3.19
2022-11-13T20:46:11.884Z,3.00
2022-11-13T20:48:38.483Z,3.22
2022-11-13T20:51:19.362Z,3.33
2022-11-13T20:53:47.018Z,3.33
2022-11-13T20:56:14.333Z,3.45
2022-11-13T20:58:41.055Z,3.39
2022-11-13T21:01:14.286Z,3.29
2022-11-13T21:03:43.947Z,3.01
2022-11-13T21:06:14.110Z,2.90
2022-11-13T21:08:40.917Z,2.88
2022-11-13T21:11:11.978Z,2.88
2022-11-13T21:13:38.422Z,2.95
2022-11-13T21:16:09.849Z,2.92
2022-11-13T21:18:36.869Z,2.94
2022-11-13T21:21:12.897Z,2.97
2022-11-13T21:23:40.030Z,3.00
2022-11-13T21:26:08.682Z,2.98
2022-11-13T21:28:35.836Z,3.01
2022-11-13T21:31:15.421Z,2.89
2022-11-13T21:33:44.532Z,2.93
2022-11-13T21:36:25.648Z,2.94
2022-11-13T21:38:54.343Z,2.76
2022-11-13T21:41:27.327Z,2.71
2022-11-13T21:44:04.705Z,2.66
2022-11-13T21:46:45.575Z,2.47
2022-11-13T21:49:13.348Z,2.48
2022-11-13T21:51:42.935Z,2.57
2022-11-13T21:54:10.431Z,2.52
2022-11-13T21:56:41.489Z,2.58
2022-11-13T21:59:08.530Z,2.57
2022-11-13T22:01:38.382Z,2.50
2022-11-13T22:04:06.529Z,2.44
2022-11-13T22:06:39.483Z,2.47
2022-11-13T22:09:17.854Z,2.49
2022-11-13T22:11:45.113Z,2.57
2022-11-13T22:14:12.053Z,2.46
2022-11-13T22:16:42.653Z,2.39
2022-11-13T22:19:21.376Z,2.41
2022-11-13T22:21:52.132Z,2.49
2022-11-13T22:24:19.764Z,2.54
2022-11-13T22:26:50.635Z,2.44
2022-11-13T22:29:17.427Z,2.37
2022-11-13T22:31:44.796Z,2.19
2022-11-13T22:34:11.449Z,2.19
2022-11-13T22:36:38.094Z,2.18
2022-11-13T22:39:05.282Z,2.09
2022-11-13T22:41:34.780Z,2.14
2022-11-13T22:44:12.191Z,2.04
2022-11-13T22:46:38.670Z,1.93
2022-11-13T22:49:06.746Z,1.82
2022-11-13T22:51:40.910Z,1.73
2022-11-13T22:54:10.943Z,1.81
2022-11-13T22:56:40.452Z,1.89
2022-11-13T22:59:10.648Z,1.79
2022-11-13T23:01:39.666Z,1.77
2022-11-13T23:04:11.846Z,1.72
2022-11-13T23:06:38.385Z,1.62
2022-11-13T23:09:06.132Z,1.49
2022-11-13T23:11:40.047Z,1.45
2022-11-13T23:14:12.349Z,1.35
2022-11-13T23:16:39.222Z,1.25
2022-11-13T23:19:06.052Z,1.20
2022-11-13T23:21:33.407Z,1.24
2022-11-13T23:24:02.194Z,1.39
2022-11-13T23:26:28.810Z,1.57
2022-11-13T23:28:56.562Z,1.58
2022-11-13T23:31:23.518Z,1.48
2022-11-13T23:33:50.185Z,1.57
2022-11-13T23:36:17.970Z,1.61
2022-11-13T23:38:45.174Z,1.68
2022-11-13T23:41:12.497Z,1.63
2022-11-13T23:44:08.158Z,1.57
2022-11-13T23:46:25.652Z,1.46
2022-11-13T23:48:52.168Z,1.43
2022-11-13T23:51:18.613Z,1.37
2022-11-13T23:53:45.105Z,1.26
2022-11-13T23:56:11.538Z,1.21
2022-11-13T23:58:37.980Z,1.10
